Time;durP1;ratioP1;P1;durP2;ratioP2;P2;SDS_P1;SDS_P2;PMS_P1;PMS_P2;Temp;Humidity;BMP_temperature;BMP_pressure;BME280_temperature;BME280_humidity;BME280_pressure;Samples;Min_cycle;Max_cycle;Signal;HPM_P1;HPM_P2
2023/01/30 00:00:57;;;;;;;;;;;0.00;87.40;;;;;;5073436;28;20358;-90
2023/01/30 00:03:23;;;;;;;;;;;0.00;88.20;;;;;;5073374;28;20033;-90
2023/01/30 00:05:48;;;;;;;;;;;0.00;89.00;;;;;;5073161;28;20037;-90
2023/01/30 00:08:14;;;;;;;;;;;0.10;89.50;;;;;;5073362;28;19972;-90
2023/01/30 00:10:40;;;;;;;;;;;0.10;89.60;;;;;;5073287;28;19938;-90
2023/01/30 00:13:05;;;;;;;;;;;0.00;89.50;;;;;;5073215;28;19938;-90
2023/01/30 00:15:31;;;;;;;;;;;0.00;89.60;;;;;;5072812;28;19972;-90
2023/01/30 00:17:56;;;;;;;;;;;0.00;89.90;;;;;;5073216;28;19934;-90
2023/01/30 00:20:22;;;;;;;;;;;0.00;90.10;;;;;;5073169;28;20087;-89
2023/01/30 00:22:47;;;;;;;;;;;0.00;90.00;;;;;;5073140;28;19948;-90
2023/01/30 00:25:13;;;;;;;;;;;0.00;89.80;;;;;;5072928;28;20046;-91
2023/01/30 00:27:38;;;;;;;;;;;0.00;89.30;;;;;;5073146;28;19989;-90
2023/01/30 00:30:06;;;;;;;;;;;0.00;89.00;;;;;;5073101;28;20030;-90
2023/01/30 00:32:32;;;;;;;;;;;0.00;89.00;;;;;;5055003;28;19964;-90
2023/01/30 00:34:57;;;;;;;;;;;0.00;88.70;;;;;;5073051;28;20026;-91
2023/01/30 00:37:23;;;;;;;;;;;0.00;88.70;;;;;;5075322;28;20038;-91
2023/01/30 00:39:48;;;;;;;;;;;0.00;88.90;;;;;;5079758;28;19941;-90
2023/01/30 00:47:42;;;;;;;;;;;0.30;89.20;;;;;;5075976;28;19965;-89
2023/01/30 00:50:08;;;;;;;;;;;0.10;89.80;;;;;;5079535;28;20389;-89
2023/01/30 00:52:34;;;;;;;;;;;0.00;90.20;;;;;;5079431;28;19961;-90
2023/01/30 00:54:59;;;;;;;;;;;0.00;89.60;;;;;;5079549;28;19992;-89
2023/01/30 00:57:25;;;;;;;;;;;0.10;89.60;;;;;;5078965;28;19946;-89
2023/01/30 00:59:50;;;;;;;;;;;0.20;90.10;;;;;;5079495;28;19981;-90
2023/01/30 01:02:16;;;;;;;;;;;0.20;89.80;;;;;;5079465;28;20410;-89
2023/01/30 01:04:44;;;;;;;;;;;0.10;89.40;;;;;;5079105;28;19979;-89
2023/01/30 01:07:10;;;;;;;;;;;0.00;89.30;;;;;;5061458;28;19945;-90
2023/01/30 01:09:36;;;;;;;;;;;0.00;88.90;;;;;;5079386;28;19944;-90
2023/01/30 01:12:01;;;;;;;;;;;0.00;88.70;;;;;;5079328;28;19963;-90
2023/01/30 01:14:27;;;;;;;;;;;0.00;89.10;;;;;;5097071;22;19980;-90
2023/01/30 01:16:52;;;;;;;;;;;-3276.70;88.90;;;;;;5099589;28;19942;-90
2023/01/30 01:19:18;;;;;;;;;;;-3276.70;89.00;;;;;;5099169;28;19946;-90
2023/01/30 01:21:43;;;;;;;;;;;-3276.70;89.40;;;;;;5099162;28;19948;-90
2023/01/30 01:24:11;;;;;;;;;;;-3276.70;89.40;;;;;;5099550;28;19939;-90
2023/01/30 01:26:36;;;;;;;;;;;-3276.60;89.10;;;;;;5099505;28;20426;-90
2023/01/30 01:29:04;;;;;;;;;;;-3276.60;88.80;;;;;;5098453;28;20285;-90
2023/01/30 01:31:30;;;;;;;;;;;-3276.60;88.50;;;;;;5099349;28;19957;-91
2023/01/30 01:33:55;;;;;;;;;;;-3276.60;88.80;;;;;;5099422;28;19940;-90
2023/01/30 01:36:21;;;;;;;;;;;0.00;89.60;;;;;;5099442;28;19941;-90
2023/01/30 01:38:47;;;;;;;;;;;0.00;89.50;;;;;;5098605;28;19956;-90
2023/01/30 01:41:13;;;;;;;;;;;0.00;88.70;;;;;;5099380;28;19939;-90
2023/01/30 01:43:57;;;;;;;;;;;-3276.70;88.20;;;;;;5099335;28;19939;-90
2023/01/30 01:46:25;;;;;;;;;;;-3276.60;87.80;;;;;;5099306;28;19988;-90
2023/01/30 01:48:53;;;;;;;;;;;-3276.40;87.60;;;;;;5078374;28;19945;-90
2023/01/30 01:51:45;;;;;;;;;;;-3276.20;87.70;;;;;;5096068;28;19957;-90
2023/01/30 01:54:12;;;;;;;;;;;-3276.10;88.40;;;;;;5071233;28;20009;-90
2023/01/30 01:56:40;;;;;;;;;;;-3276.00;88.90;;;;;;5057698;28;20405;-90
2023/01/30 01:59:10;;;;;;;;;;;-3276.10;89.30;;;;;;5075714;28;19948;-91
2023/01/30 02:01:35;;;;;;;;;;;-3276.20;89.50;;;;;;5055713;28;20010;-90
2023/01/30 02:04:03;;;;;;;;;;;-3276.20;89.80;;;;;;5064856;28;20379;-90
2023/01/30 02:06:29;;;;;;;;;;;-3276.20;90.10;;;;;;5057584;28;19943;-90
2023/01/30 02:08:58;;;;;;;;;;;-3276.20;90.20;;;;;;5075532;28;20002;-90
2023/01/30 02:11:27;;;;;;;;;;;-3276.30;90.60;;;;;;5075422;28;19955;-90
2023/01/30 02:13:53;;;;;;;;;;;-3276.40;90.80;;;;;;5075020;28;20017;-90
2023/01/30 02:16:19;;;;;;;;;;;-3276.40;90.90;;;;;;5075108;28;19946;-91
2023/01/30 02:18:45;;;;;;;;;;;-3276.40;90.90;;;;;;5075360;28;20355;-91
2023/01/30 02:21:40;;;;;;;;;;;-3276.40;90.90;;;;;;5075324;28;19934;-90
2023/01/30 02:24:37;;;;;;;;;;;-3276.50;91.00;;;;;;4986207;28;20448;-91
2023/01/30 02:27:18;;;;;;;;;;;-3276.60;90.90;;;;;;5019840;28;20289;-90
2023/01/30 02:29:44;;;;;;;;;;;0.00;90.90;;;;;;5075420;28;19941;-91
2023/01/30 02:32:30;;;;;;;;;;;0.10;90.20;;;;;;5074849;28;20440;-91
2023/01/30 02:34:56;;;;;;;;;;;0.00;89.90;;;;;;5075102;28;19980;-91
2023/01/30 02:37:40;;;;;;;;;;;0.00;89.50;;;;;;5075029;28;19994;-90
2023/01/30 02:40:35;;;;;;;;;;;0.00;89.50;;;;;;5074951;28;19946;-90
2023/01/30 02:43:12;;;;;;;;;;;-3276.70;89.70;;;;;;5002825;28;19950;-90
2023/01/30 02:45:44;;;;;;;;;;;-3276.60;89.40;;;;;;5074170;28;20385;-90
2023/01/30 02:48:17;;;;;;;;;;;-3276.60;89.50;;;;;;5074812;28;19976;-90
2023/01/30 02:50:46;;;;;;;;;;;-3276.50;88.90;;;;;;5074166;28;19942;-90
2023/01/30 02:53:12;;;;;;;;;;;-3276.30;89.50;;;;;;5074630;28;19964;-90
2023/01/30 02:55:39;;;;;;;;;;;-3276.30;89.20;;;;;;5074582;28;19940;-91
2023/01/30 02:58:05;;;;;;;;;;;-3276.30;89.40;;;;;;5056750;28;19944;-91
2023/01/30 03:00:52;;;;;;;;;;;-3276.30;90.00;;;;;;5074175;28;19985;-90
2023/01/30 03:03:36;;;;;;;;;;;-3276.40;90.30;;;;;;5074438;28;20418;-91
2023/01/30 03:06:05;;;;;;;;;;;-3276.50;90.40;;;;;;5074204;28;19943;-91
2023/01/30 03:08:49;;;;;;;;;;;-3276.60;89.90;;;;;;5074209;28;19956;-90
2023/01/30 03:11:15;;;;;;;;;;;-3276.60;89.80;;;;;;5074237;28;19962;-90
2023/01/30 03:13:41;;;;;;;;;;;-3276.50;89.40;;;;;;5073973;28;19972;-91
2023/01/30 03:16:15;;;;;;;;;;;-3276.40;89.40;;;;;;5074050;28;20047;-90
2023/01/30 03:18:41;;;;;;;;;;;-3276.30;89.60;;;;;;5074423;28;19967;-90
2023/01/30 03:21:07;;;;;;;;;;;-3276.30;88.90;;;;;;5074090;28;19936;-90
2023/01/30 03:23:32;;;;;;;;;;;-3276.30;87.90;;;;;;5073844;28;19937;-90
2023/01/30 03:25:58;;;;;;;;;;;-3276.40;87.90;;;;;;5056053;28;20035;-91
2023/01/30 03:28:24;;;;;;;;;;;-3276.30;87.40;;;;;;5074016;28;19936;-91
2023/01/30 03:30:50;;;;;;;;;;;-3276.20;87.40;;;;;;5073808;28;20001;-91
2023/01/30 03:33:15;;;;;;;;;;;-3276.20;87.60;;;;;;5073894;28;19933;-90
2023/01/30 03:35:42;;;;;;;;;;;-3276.10;87.40;;;;;;5073872;28;19993;-90
2023/01/30 03:38:07;;;;;;;;;;;-3276.10;86.80;;;;;;5073888;28;19940;-90
2023/01/30 03:40:33;;;;;;;;;;;-3276.10;87.50;;;;;;5073812;28;20456;-90
2023/01/30 03:42:58;;;;;;;;;;;-3276.20;88.40;;;;;;5073713;28;20025;-89
2023/01/30 03:45:24;;;;;;;;;;;-3276.40;89.20;;;;;;5073363;28;19981;-89
2023/01/30 03:47:50;;;;;;;;;;;-3276.60;88.30;;;;;;5073630;28;19959;-89
2023/01/30 03:50:16;;;;;;;;;;;-3276.50;88.50;;;;;;5073768;28;19940;-89
2023/01/30 03:52:42;;;;;;;;;;;-3276.50;87.80;;;;;;5073427;28;19969;-89
2023/01/30 03:55:07;;;;;;;;;;;-3276.40;86.90;;;;;;5055494;28;19950;-89
2023/01/30 03:57:33;;;;;;;;;;;-3276.30;87.00;;;;;;5073392;28;19948;-89
2023/01/30 03:59:58;;;;;;;;;;;-3276.10;86.90;;;;;;5073453;28;20422;-89
2023/01/30 04:02:25;;;;;;;;;;;-3276.10;88.20;;;;;;5073425;28;20468;-89
2023/01/30 04:04:51;;;;;;;;;;;-3276.10;88.80;;;;;;5073305;28;20047;-89
2023/01/30 04:07:16;;;;;;;;;;;-3276.00;88.80;;;;;;5073110;28;19945;-89
2023/01/30 04:09:42;;;;;;;;;;;-3275.90;89.20;;;;;;5073306;28;19962;-89
2023/01/30 04:12:08;;;;;;;;;;;-3275.90;89.80;;;;;;5072352;28;19964;-89
2023/01/30 04:14:33;;;;;;;;;;;-3276.10;89.50;;;;;;5072839;28;20490;-89
2023/01/30 04:16:59;;;;;;;;;;;-3276.20;89.40;;;;;;5055258;28;19951;-89
2023/01/30 04:19:24;;;;;;;;;;;-3276.20;88.20;;;;;;5073189;28;19980;-89
2023/01/30 04:21:50;;;;;;;;;;;-3276.30;88.00;;;;;;5073231;28;20029;-89
2023/01/30 04:24:15;;;;;;;;;;;-3276.40;87.90;;;;;;5073131;28;20356;-89
2023/01/30 04:26:41;;;;;;;;;;;-3276.40;87.60;;;;;;5073132;28;20301;-88
2023/01/30 04:29:07;;;;;;;;;;;-3276.30;87.50;;;;;;5073086;28;20017;-89
2023/01/30 04:31:32;;;;;;;;;;;-3276.20;87.40;;;;;;5072803;28;20393;-89
2023/01/30 04:33:58;;;;;;;;;;;-3276.10;86.90;;;;;;5073105;28;19944;-89
2023/01/30 04:36:23;;;;;;;;;;;-3276.00;87.20;;;;;;5073020;28;19987;-89
2023/01/30 04:38:49;;;;;;;;;;;-3275.80;87.30;;;;;;5072982;28;19943;-88
2023/01/30 04:41:15;;;;;;;;;;;-3275.90;88.80;;;;;;5072993;28;20274;-89
2023/01/30 04:43:40;;;;;;;;;;;-3276.00;89.60;;;;;;5072984;28;19947;-89
2023/01/30 04:46:06;;;;;;;;;;;-3276.00;89.50;;;;;;5072858;28;20298;-89
2023/01/30 04:48:31;;;;;;;;;;;-3275.90;89.40;;;;;;5072600;28;19950;-89
2023/01/30 04:50:57;;;;;;;;;;;-3275.90;89.50;;;;;;5054884;28;19956;-89
2023/01/30 04:53:23;;;;;;;;;;;-3276.10;89.60;;;;;;5072797;28;19957;-89
2023/01/30 04:55:49;;;;;;;;;;;-3276.20;89.80;;;;;;5072697;28;19935;-89
2023/01/30 04:58:15;;;;;;;;;;;-3276.20;89.10;;;;;;5073109;28;20296;-89
2023/01/30 05:00:40;;;;;;;;;;;-3276.10;88.60;;;;;;5072789;28;19945;-89
2023/01/30 05:03:06;;;;;;;;;;;-3275.90;88.00;;;;;;5072706;28;19942;-89
2023/01/30 05:05:33;;;;;;;;;;;-3275.70;87.60;;;;;;5072682;28;19938;-89
2023/01/30 05:07:58;;;;;;;;;;;-3275.60;87.80;;;;;;5073232;28;20027;-89
2023/01/30 05:10:24;;;;;;;;;;;-3275.60;88.40;;;;;;5072679;28;19996;-88
2023/01/30 05:12:49;;;;;;;;;;;-3275.40;88.50;;;;;;5072390;28;19992;-88
2023/01/30 05:15:15;;;;;;;;;;;-3275.50;88.80;;;;;;5072488;28;20070;-89
2023/01/30 05:17:40;;;;;;;;;;;-3275.60;89.50;;;;;;5072615;28;19940;-89
2023/01/30 05:20:08;;;;;;;;;;;-3275.50;89.90;;;;;;5072591;28;19973;-89
2023/01/30 05:22:34;;;;;;;;;;;-3275.50;89.90;;;;;;5072448;28;19946;-89
2023/01/30 05:24:59;;;;;;;;;;;-3275.50;90.10;;;;;;5075977;28;20040;-89
2023/01/30 05:27:25;;;;;;;;;;;-3275.60;90.20;;;;;;5076318;28;19985;-89
2023/01/30 05:29:50;;;;;;;;;;;-3275.60;89.70;;;;;;5076273;28;19962;-89
2023/01/30 05:32:17;;;;;;;;;;;-3275.60;89.70;;;;;;5076097;28;20315;-89
2023/01/30 05:34:42;;;;;;;;;;;-3275.80;89.00;;;;;;5076161;28;19952;-89
2023/01/30 05:37:08;;;;;;;;;;;-3275.80;88.10;;;;;;5076154;28;20312;-88
2023/01/30 05:39:34;;;;;;;;;;;-3275.80;88.40;;;;;;5075760;28;19945;-88
2023/01/30 05:41:59;;;;;;;;;;;-3275.60;88.40;;;;;;5076228;28;19946;-88
2023/01/30 05:44:25;;;;;;;;;;;-3275.60;88.30;;;;;;5075983;28;20400;-88
2023/01/30 05:46:50;;;;;;;;;;;-3275.50;88.80;;;;;;5075930;28;20441;-88
2023/01/30 05:49:16;;;;;;;;;;;-3275.70;89.40;;;;;;5071979;28;19937;-88
2023/01/30 05:51:41;;;;;;;;;;;-3275.70;89.60;;;;;;5069402;28;19951;-89
2023/01/30 05:54:07;;;;;;;;;;;-3275.80;89.50;;;;;;5069421;28;20430;-88
2023/01/30 05:56:33;;;;;;;;;;;-3275.80;89.80;;;;;;5074711;28;20389;-88
2023/01/30 05:58:59;;;;;;;;;;;-3275.80;89.30;;;;;;5059156;28;19978;-89
2023/01/30 06:01:25;;;;;;;;;;;-3275.60;89.40;;;;;;5074809;28;19989;-89
2023/01/30 06:03:51;;;;;;;;;;;-3275.50;89.00;;;;;;5062689;28;19943;-88
2023/01/30 06:06:16;;;;;;;;;;;-3275.50;88.60;;;;;;5072928;28;19961;-89
2023/01/30 06:08:42;;;;;;;;;;;-3275.40;88.30;;;;;;5071442;28;20002;-89
2023/01/30 06:11:09;;;;;;;;;;;-3275.30;88.10;;;;;;5070525;28;19959;-89
2023/01/30 06:13:35;;;;;;;;;;;-3275.30;87.40;;;;;;5074949;28;19940;-89
2023/01/30 06:16:00;;;;;;;;;;;-3275.20;86.90;;;;;;5067319;28;20510;-88
2023/01/30 06:18:26;;;;;;;;;;;-3275.10;87.10;;;;;;5069103;28;20031;-88
2023/01/30 06:20:52;;;;;;;;;;;-3275.00;87.30;;;;;;5060486;28;19949;-89
2023/01/30 06:23:18;;;;;;;;;;;-3274.90;87.50;;;;;;5071341;28;19935;-89
2023/01/30 06:25:44;;;;;;;;;;;-3274.90;88.10;;;;;;5054927;28;20291;-89
2023/01/30 06:28:10;;;;;;;;;;;-3275.00;88.30;;;;;;5073750;28;19950;-89
2023/01/30 06:30:35;;;;;;;;;;;-3275.00;88.90;;;;;;5053634;28;19935;-89
2023/01/30 06:33:01;;;;;;;;;;;-3275.00;89.10;;;;;;5070457;28;19973;-89
2023/01/30 06:35:27;;;;;;;;;;;-3275.00;89.10;;;;;;5065780;28;20301;-89
2023/01/30 06:37:52;;;;;;;;;;;-3275.00;89.40;;;;;;5071241;28;20293;-90
2023/01/30 06:40:18;;;;;;;;;;;-3275.20;90.40;;;;;;5064461;28;19949;-89
2023/01/30 06:42:47;;;;;;;;;;;-3275.40;90.00;;;;;;5073582;28;20029;-89
2023/01/30 06:45:16;;;;;;;;;;;-3275.50;89.10;;;;;;5073048;28;19953;-90
2023/01/30 06:47:49;;;;;;;;;;;-3275.60;89.00;;;;;;5069202;28;20003;-90
2023/01/30 06:50:16;;;;;;;;;;;-3275.70;88.40;;;;;;5052389;28;19942;-89
2023/01/30 06:52:43;;;;;;;;;;;-3275.90;88.80;;;;;;5070397;28;19972;-90
2023/01/30 06:55:09;;;;;;;;;;;-3276.00;88.90;;;;;;5066885;28;20479;-89
2023/01/30 06:57:34;;;;;;;;;;;-3276.00;88.60;;;;;;5072779;28;19936;-90
2023/01/30 07:00:01;;;;;;;;;;;-3276.10;88.30;;;;;;5069351;28;19970;-90
2023/01/30 07:02:29;;;;;;;;;;;-3276.10;88.20;;;;;;5070379;28;19969;-90
2023/01/30 07:04:54;;;;;;;;;;;-3276.10;88.10;;;;;;5066263;28;19956;-90
2023/01/30 07:07:20;;;;;;;;;;;-3276.10;88.20;;;;;;5067015;28;19944;-90
2023/01/30 07:09:45;;;;;;;;;;;-3276.10;88.80;;;;;;5069625;28;20890;-90
2023/01/30 07:12:11;;;;;;;;;;;-3276.20;88.60;;;;;;5072502;28;19961;-90
2023/01/30 07:14:36;;;;;;;;;;;-3276.30;88.50;;;;;;5066224;28;19971;-89
2023/01/30 07:17:02;;;;;;;;;;;-3276.20;88.00;;;;;;5061988;28;20821;-90
2023/01/30 07:19:27;;;;;;;;;;;-3276.00;87.80;;;;;;5061342;28;19946;-90
2023/01/30 07:21:53;;;;;;;;;;;-3275.90;88.10;;;;;;5068139;28;20455;-90
2023/01/30 07:24:18;;;;;;;;;;;-3275.90;88.50;;;;;;5048869;28;20350;-90
2023/01/30 07:26:46;;;;;;;;;;;-3276.00;89.60;;;;;;5063322;28;20167;-89
2023/01/30 07:29:11;;;;;;;;;;;-3276.20;90.00;;;;;;5065004;28;19957;-89
2023/01/30 07:31:37;;;;;;;;;;;-3276.20;89.90;;;;;;5069041;28;19959;-87
2023/01/30 07:34:02;;;;;;;;;;;-3276.40;89.90;;;;;;5068380;28;19948;-88
2023/01/30 07:36:28;;;;;;;;;;;-3276.50;89.90;;;;;;5070278;28;19962;-87
2023/01/30 07:38:53;;;;;;;;;;;-3276.50;90.20;;;;;;5069780;28;19977;-87
2023/01/30 07:41:19;;;;;;;;;;;-3276.60;91.00;;;;;;5065276;28;19990;-87
2023/01/30 07:43:44;;;;;;;;;;;0.00;90.70;;;;;;5064955;28;20357;-88
2023/01/30 07:46:10;;;;;;;;;;;0.10;90.10;;;;;;5068132;28;19959;-88
2023/01/30 07:48:35;;;;;;;;;;;0.20;89.60;;;;;;5067438;28;19942;-89
2023/01/30 07:51:01;;;;;;;;;;;0.30;89.30;;;;;;5066195;28;19940;-89
2023/01/30 07:53:27;;;;;;;;;;;0.40;89.10;;;;;;5066171;28;19959;-89
2023/01/30 07:55:52;;;;;;;;;;;0.40;88.80;;;;;;5069586;28;20299;-89
2023/01/30 07:58:18;;;;;;;;;;;0.40;88.70;;;;;;5064927;28;19943;-89
2023/01/30 08:00:43;;;;;;;;;;;0.40;89.00;;;;;;5068673;28;19950;-89
2023/01/30 08:03:12;;;;;;;;;;;0.40;89.40;;;;;;5068379;28;20406;-89
2023/01/30 08:05:38;;;;;;;;;;;0.40;89.50;;;;;;5067413;28;19937;-89
2023/01/30 08:08:03;;;;;;;;;;;0.40;89.40;;;;;;5068699;28;20031;-89
2023/01/30 08:10:29;;;;;;;;;;;0.40;89.60;;;;;;5067384;28;19944;-89
2023/01/30 08:12:54;;;;;;;;;;;0.50;89.70;;;;;;5068327;28;19945;-89
2023/01/30 08:15:20;;;;;;;;;;;0.50;90.00;;;;;;5067035;28;19998;-89
2023/01/30 08:17:52;;;;;;;;;;;0.60;89.70;;;;;;5071202;28;20318;-89
2023/01/30 08:20:17;;;;;;;;;;;0.70;89.50;;;;;;5068243;28;19949;-89
2023/01/30 08:22:43;;;;;;;;;;;0.80;89.50;;;;;;5044399;28;19947;-89
2023/01/30 08:25:09;;;;;;;;;;;0.80;89.70;;;;;;5066816;28;20500;-89
2023/01/30 08:27:34;;;;;;;;;;;0.90;90.00;;;;;;5067518;28;19957;-89
2023/01/30 08:30:01;;;;;;;;;;;1.00;90.70;;;;;;5066010;28;19946;-89
2023/01/30 08:32:26;;;;;;;;;;;1.10;91.20;;;;;;5064872;28;19962;-89
2023/01/30 08:34:52;;;;;;;;;;;1.20;91.30;;;;;;5068789;28;21997;-89
2023/01/30 08:37:18;;;;;;;;;;;1.30;91.30;;;;;;5065449;28;19994;-90
2023/01/30 08:39:43;;;;;;;;;;;1.30;91.30;;;;;;5069625;28;19942;-90
2023/01/30 08:42:09;;;;;;;;;;;1.40;91.50;;;;;;5052210;28;19949;-90
2023/01/30 08:44:34;;;;;;;;;;;1.50;91.30;;;;;;5067065;28;19954;-90
2023/01/30 08:47:00;;;;;;;;;;;2.00;91.10;;;;;;5068877;28;20396;-90
2023/01/30 08:49:25;;;;;;;;;;;2.10;88.60;;;;;;5063262;28;20417;-89
2023/01/30 08:51:51;;;;;;;;;;;1.80;87.70;;;;;;5073842;28;20313;-89
2023/01/30 08:54:16;;;;;;;;;;;1.60;88.50;;;;;;5068430;28;19942;-89
2023/01/30 08:56:42;;;;;;;;;;;1.60;88.60;;;;;;5051319;28;19942;-89
2023/01/30 08:59:07;;;;;;;;;;;1.70;88.10;;;;;;5052354;28;19946;-89
2023/01/30 09:01:33;;;;;;;;;;;1.70;87.80;;;;;;5070522;28;20000;-89
2023/01/30 09:03:58;;;;;;;;;;;1.60;87.70;;;;;;5077551;28;20508;-89
2023/01/30 09:06:24;;;;;;;;;;;1.60;87.70;;;;;;5076927;28;20340;-89
2023/01/30 09:08:50;;;;;;;;;;;1.60;87.90;;;;;;5053379;28;20356;-89
2023/01/30 09:11:16;;;;;;;;;;;1.60;87.90;;;;;;5070279;28;19981;-89
2023/01/30 09:13:43;;;;;;;;;;;1.50;88.40;;;;;;5086974;22;19981;-89
2023/01/30 09:16:10;;;;;;;;;;;1.60;88.80;;;;;;5088967;28;19953;-89
2023/01/30 09:18:39;;;;;;;;;;;1.50;88.90;;;;;;5091283;28;19946;-89
2023/01/30 09:21:05;;;;;;;;;;;1.70;89.30;;;;;;5083229;28;19963;-89
2023/01/30 09:23:31;;;;;;;;;;;1.80;89.20;;;;;;5089978;28;19941;-89
2023/01/30 09:25:56;;;;;;;;;;;2.10;88.70;;;;;;5092250;28;19977;-89
2023/01/30 09:28:22;;;;;;;;;;;2.20;87.30;;;;;;5085707;28;20481;-89
2023/01/30 09:30:47;;;;;;;;;;;2.20;86.70;;;;;;5070662;28;19946;-89
2023/01/30 09:33:15;;;;;;;;;;;2.30;86.60;;;;;;5092242;28;19965;-89
2023/01/30 09:35:41;;;;;;;;;;;2.30;87.30;;;;;;5068696;28;20525;-89
2023/01/30 09:38:06;;;;;;;;;;;2.40;87.20;;;;;;5088436;28;19974;-89
2023/01/30 09:40:35;;;;;;;;;;;2.50;86.80;;;;;;5087464;28;20375;-89
2023/01/30 09:43:17;;;;;;;;;;;2.50;86.20;;;;;;5085189;28;19993;-89
2023/01/30 09:45:44;;;;;;;;;;;2.80;85.40;;;;;;5090603;28;20315;-89
2023/01/30 09:48:09;;;;;;;;;;;3.00;84.10;;;;;;5084732;28;20354;-89
2023/01/30 09:50:54;;;;;;;;;;;3.00;82.00;;;;;;5070628;28;20031;-89
2023/01/30 09:53:19;;;;;;;;;;;3.00;82.60;;;;;;5083331;28;19965;-89
2023/01/30 09:55:45;;;;;;;;;;;3.00;83.40;;;;;;5079960;28;19972;-89
2023/01/30 09:58:18;;;;;;;;;;;3.10;83.00;;;;;;5080405;28;19950;-89
2023/01/30 10:00:45;;;;;;;;;;;3.30;81.70;;;;;;5083411;28;20411;-89
2023/01/30 10:03:28;;;;;;;;;;;3.40;77.00;;;;;;5058037;28;20011;-89
2023/01/30 10:05:57;;;;;;;;;;;3.50;76.80;;;;;;5060123;28;20001;-89
2023/01/30 10:08:38;;;;;;;;;;;3.50;76.70;;;;;;5086171;28;19975;-89
2023/01/30 10:11:15;;;;;;;;;;;3.70;75.50;;;;;;5077449;28;19949;-89
2023/01/30 10:13:44;;;;;;;;;;;4.00;75.70;;;;;;5083731;28;20013;-89
2023/01/30 10:16:33;;;;;;;;;;;4.00;74.10;;;;;;5080793;28;20410;-89
2023/01/30 10:19:24;;;;;;;;;;;4.00;74.30;;;;;;5085241;28;19943;-89
2023/01/30 10:21:58;;;;;;;;;;;4.20;76.60;;;;;;5078605;28;20429;-89
2023/01/30 10:24:47;;;;;;;;;;;4.20;75.90;;;;;;5081361;28;19947;-88
2023/01/30 10:27:16;;;;;;;;;;;4.10;74.10;;;;;;5071790;28;20369;-89
2023/01/30 10:29:44;;;;;;;;;;;4.20;73.70;;;;;;5082327;28;19940;-89
2023/01/30 10:32:16;;;;;;;;;;;4.20;72.90;;;;;;5076532;28;19958;-89
2023/01/30 10:34:52;;;;;;;;;;;4.30;74.30;;;;;;5076593;28;19948;-89
2023/01/30 10:37:23;;;;;;;;;;;4.30;73.40;;;;;;5080063;28;20404;-89
2023/01/30 10:39:50;;;;;;;;;;;4.20;74.00;;;;;;5083788;28;19942;-89
2023/01/30 10:42:21;;;;;;;;;;;4.30;74.80;;;;;;5065296;28;20002;-89
2023/01/30 10:44:46;;;;;;;;;;;4.30;74.60;;;;;;5084740;28;19945;-89
2023/01/30 10:47:18;;;;;;;;;;;4.30;74.40;;;;;;5082987;28;19944;-89
2023/01/30 10:49:45;;;;;;;;;;;4.30;75.00;;;;;;5079115;28;19951;-89
2023/01/30 10:52:18;;;;;;;;;;;4.50;74.90;;;;;;5082031;28;19972;-89
2023/01/30 10:54:44;;;;;;;;;;;4.90;73.90;;;;;;5092462;28;20421;-89
2023/01/30 10:57:16;;;;;;;;;;;5.20;72.20;;;;;;5078760;28;19945;-89
2023/01/30 10:59:44;;;;;;;;;;;5.60;70.30;;;;;;5079190;28;19945;-88
2023/01/30 11:02:22;;;;;;;;;;;5.50;71.60;;;;;;5078537;28;19946;-89
2023/01/30 11:04:55;;;;;;;;;;;5.20;72.50;;;;;;5081175;28;19975;-89
2023/01/30 11:07:20;;;;;;;;;;;5.00;72.60;;;;;;5079903;28;19949;-89
2023/01/30 11:09:47;;;;;;;;;;;5.00;73.60;;;;;;5084049;28;19976;-89
2023/01/30 11:12:13;;;;;;;;;;;5.10;73.90;;;;;;5087350;28;19941;-89
2023/01/30 11:14:57;;;;;;;;;;;5.00;75.00;;;;;;5060786;28;19944;-89
2023/01/30 11:17:28;;;;;;;;;;;5.20;75.30;;;;;;5082902;28;19950;-88
2023/01/30 11:20:00;;;;;;;;;;;5.40;74.80;;;;;;5094307;28;20089;-88
2023/01/30 11:22:27;;;;;;;;;;;5.40;73.70;;;;;;5079054;28;19984;-88
2023/01/30 11:25:00;;;;;;;;;;;5.50;73.80;;;;;;5056067;28;20028;-88
2023/01/30 11:27:28;;;;;;;;;;;5.70;72.70;;;;;;5073745;28;20403;-88
2023/01/30 11:30:11;;;;;;;;;;;5.90;71.50;;;;;;5073894;28;19944;-88
2023/01/30 11:32:36;;;;;;;;;;;5.90;70.10;;;;;;5073782;28;19935;-88
2023/01/30 11:35:05;;;;;;;;;;;6.00;68.00;;;;;;5073878;28;19958;-88
2023/01/30 11:37:34;;;;;;;;;;;6.10;68.00;;;;;;5073852;28;19968;-89
2023/01/30 11:40:06;;;;;;;;;;;6.40;68.60;;;;;;5073792;28;20030;-89
2023/01/30 11:42:32;;;;;;;;;;;6.60;66.90;;;;;;5073791;28;19944;-89
2023/01/30 11:44:58;;;;;;;;;;;6.70;66.90;;;;;;5073726;28;20004;-89
2023/01/30 11:47:25;;;;;;;;;;;6.80;65.70;;;;;;5073660;28;20000;-89
2023/01/30 11:49:54;;;;;;;;;;;7.10;65.40;;;;;;5073706;28;19971;-88
2023/01/30 11:52:25;;;;;;;;;;;7.20;63.70;;;;;;5073524;28;19936;-89
2023/01/30 11:54:52;;;;;;;;;;;7.40;64.80;;;;;;5090992;28;20500;-88
2023/01/30 11:57:18;;;;;;;;;;;7.70;63.30;;;;;;5093696;28;19938;-89
2023/01/30 11:59:54;;;;;;;;;;;7.70;61.40;;;;;;5093778;28;19985;-88
2023/01/30 12:02:23;;;;;;;;;;;7.70;62.30;;;;;;5089746;28;19939;-88
2023/01/30 12:04:54;;;;;;;;;;;7.60;61.40;;;;;;5076585;28;19994;-88
2023/01/30 12:07:22;;;;;;;;;;;7.70;61.40;;;;;;5085734;28;20017;-89
2023/01/30 12:09:49;;;;;;;;;;;7.90;60.50;;;;;;5082981;28;19938;-89
2023/01/30 12:12:25;;;;;;;;;;;8.40;59.90;;;;;;5093474;28;20061;-89
2023/01/30 12:14:51;;;;;;;;;;;9.10;58.00;;;;;;5093319;28;20015;-88
2023/01/30 12:17:25;;;;;;;;;;;9.60;55.90;;;;;;5082834;28;20323;-89
2023/01/30 12:19:50;;;;;;;;;;;10.00;55.90;;;;;;5088131;28;19940;-89
2023/01/30 12:22:40;;;;;;;;;;;10.40;54.80;;;;;;5091605;28;20010;-89
2023/01/30 12:25:14;;;;;;;;;;;10.80;53.50;;;;;;5074133;28;19953;-89
2023/01/30 12:27:40;;;;;;;;;;;11.10;51.00;;;;;;5082828;28;19948;-89
2023/01/30 12:30:20;;;;;;;;;;;11.40;50.70;;;;;;5086086;28;20305;-89
2023/01/30 12:32:45;;;;;;;;;;;11.60;49.70;;;;;;5080263;28;19963;-89
2023/01/30 12:35:16;;;;;;;;;;;12.30;48.10;;;;;;5084742;28;20402;-89
2023/01/30 12:37:51;;;;;;;;;;;12.20;47.70;;;;;;5076074;28;19988;-89
2023/01/30 12:40:23;;;;;;;;;;;12.50;47.50;;;;;;5083847;28;19949;-89
2023/01/30 12:43:01;;;;;;;;;;;12.80;46.40;;;;;;5085171;28;20498;-89
2023/01/30 12:45:58;;;;;;;;;;;12.90;45.60;;;;;;5088444;28;19993;-89
2023/01/30 12:48:37;;;;;;;;;;;12.90;46.20;;;;;;5018054;28;20435;-89
2023/01/30 12:51:23;;;;;;;;;;;12.90;45.90;;;;;;5078460;28;19942;-89
2023/01/30 12:53:51;;;;;;;;;;;12.90;46.60;;;;;;5083693;28;19966;-89
2023/01/30 12:56:19;;;;;;;;;;;13.00;46.20;;;;;;5077111;28;19944;-89
2023/01/30 12:58:58;;;;;;;;;;;13.00;45.20;;;;;;5077847;28;19986;-89
2023/01/30 13:01:28;;;;;;;;;;;13.70;43.90;;;;;;5059676;28;20431;-90
2023/01/30 13:03:59;;;;;;;;;;;14.50;41.20;;;;;;5081408;28;20401;-89
2023/01/30 13:06:28;;;;;;;;;;;14.60;41.20;;;;;;5080892;28;20021;-89
2023/01/30 13:09:02;;;;;;;;;;;15.60;38.40;;;;;;5081996;28;20393;-89
2023/01/30 13:11:43;;;;;;;;;;;15.70;38.00;;;;;;5084877;28;19959;-89
2023/01/30 13:14:08;;;;;;;;;;;15.30;37.80;;;;;;5083791;28;20351;-89
2023/01/30 13:16:44;;;;;;;;;;;15.00;39.20;;;;;;5074930;28;19951;-89
2023/01/30 13:19:09;;;;;;;;;;;14.60;40.20;;;;;;5080495;28;19944;-89
2023/01/30 13:21:53;;;;;;;;;;;14.30;41.30;;;;;;5075718;28;19947;-89
2023/01/30 13:24:34;;;;;;;;;;;13.90;41.80;;;;;;5080666;28;20036;-89
2023/01/30 13:27:02;;;;;;;;;;;13.30;43.80;;;;;;5083041;28;19941;-89
2023/01/30 13:29:30;;;;;;;;;;;13.30;43.80;;;;;;5084902;28;19952;-89
2023/01/30 13:31:58;;;;;;;;;;;13.60;43.90;;;;;;5077920;28;20053;-89
2023/01/30 13:34:23;;;;;;;;;;;14.70;42.10;;;;;;5076012;28;20493;-89
2023/01/30 13:36:53;;;;;;;;;;;15.80;38.90;;;;;;5077728;28;20025;-89
2023/01/30 13:39:27;;;;;;;;;;;15.60;38.50;;;;;;5087523;28;19944;-89
2023/01/30 13:41:54;;;;;;;;;;;16.10;37.40;;;;;;5084984;28;19940;-89
2023/01/30 13:44:22;;;;;;;;;;;16.40;35.70;;;;;;5072599;28;19956;-89
2023/01/30 13:46:48;;;;;;;;;;;15.90;36.90;;;;;;5082403;28;20859;-89
2023/01/30 13:49:36;;;;;;;;;;;16.50;35.90;;;;;;5064089;28;19957;-89
2023/01/30 13:52:07;;;;;;;;;;;15.90;36.90;;;;;;5079521;28;19967;-89
2023/01/30 13:54:42;;;;;;;;;;;15.50;37.70;;;;;;5078505;28;20149;-88
2023/01/30 13:57:14;;;;;;;;;;;14.60;38.60;;;;;;5080207;28;19947;-88
2023/01/30 13:59:51;;;;;;;;;;;14.40;40.10;;;;;;5080692;28;19996;-88
2023/01/30 14:02:18;;;;;;;;;;;13.60;41.50;;;;;;5081657;28;20549;-89
2023/01/30 14:04:45;;;;;;;;;;;13.20;42.30;;;;;;5082932;28;19952;-88
2023/01/30 14:07:11;;;;;;;;;;;13.30;42.70;;;;;;5065857;28;19980;-88
2023/01/30 14:09:39;;;;;;;;;;;13.80;42.10;;;;;;5085816;28;20012;-89
2023/01/30 14:12:05;;;;;;;;;;;14.80;40.40;;;;;;5091916;28;19987;-89
2023/01/30 14:14:32;;;;;;;;;;;15.40;38.50;;;;;;5082780;28;19976;-89
2023/01/30 14:17:08;;;;;;;;;;;15.90;38.20;;;;;;5078574;28;20042;-89
2023/01/30 14:19:53;;;;;;;;;;;16.60;37.00;;;;;;5082154;28;19983;-89